createdAt,value
2022-08-31T00:02:10.136Z,11.82
2022-08-31T00:07:15.849Z,15.10
2022-08-31T00:12:21.379Z,16.95
2022-08-31T00:17:27.193Z,17.45
2022-08-31T00:22:34.158Z,13.70
2022-08-31T00:27:40.359Z,12.65
2022-08-31T00:32:46.025Z,13.35
2022-08-31T00:37:53.597Z,14.77
2022-08-31T00:43:00.896Z,13.05
2022-08-31T00:48:06.544Z,12.95
2022-08-31T00:58:17.055Z,11.45
2022-08-31T01:03:24.445Z,10.18
2022-08-31T01:08:30.870Z,10.95
2022-08-31T01:13:36.883Z,10.35
2022-08-31T01:18:44.584Z,10.60
2022-08-31T01:23:50.136Z,10.18
2022-08-31T01:29:00.045Z,10.90
2022-08-31T01:34:06.028Z,10.38
2022-08-31T01:39:13.154Z,10.60
2022-08-31T01:44:23.211Z,10.88
2022-08-31T01:49:28.908Z,10.20
2022-08-31T01:59:40.357Z,12.15
2022-08-31T02:05:04.405Z,10.77
2022-08-31T02:10:11.112Z,9.98
2022-08-31T02:15:18.437Z,11.07
2022-08-31T02:20:24.734Z,10.60
2022-08-31T02:25:31.743Z,10.85
2022-08-31T02:30:39.679Z,11.75
2022-08-31T02:35:46.945Z,12.00
2022-08-31T02:40:58.239Z,11.98
2022-08-31T02:46:04.965Z,12.25
2022-08-31T02:51:16.601Z,11.80
2022-08-31T02:56:25.281Z,10.98
2022-08-31T03:01:31.997Z,11.52
2022-08-31T03:06:37.648Z,10.93
2022-08-31T03:11:43.373Z,10.38
2022-08-31T03:16:51.953Z,10.27
2022-08-31T03:21:58.502Z,8.88
2022-08-31T03:27:04.481Z,10.30
2022-08-31T03:32:10.068Z,11.40
2022-08-31T03:37:18.780Z,11.00
2022-08-31T03:47:29.479Z,8.05
2022-08-31T03:52:38.534Z,9.45
2022-08-31T03:57:51.567Z,9.25
2022-08-31T04:03:01.232Z,7.38
2022-08-31T04:08:10.315Z,8.60
2022-08-31T04:13:44.538Z,8.73
2022-08-31T04:19:21.954Z,8.27
2022-08-31T04:24:45.965Z,5.78
2022-08-31T04:29:51.509Z,7.78
2022-08-31T04:34:57.357Z,9.35
2022-08-31T04:40:06.259Z,8.43
2022-08-31T04:45:13.161Z,9.10
2022-08-31T04:50:19.444Z,9.60
2022-08-31T04:55:45.137Z,9.35
2022-08-31T05:00:52.431Z,9.63
2022-08-31T05:11:14.295Z,9.18
2022-08-31T05:16:21.188Z,9.88
2022-08-31T05:21:32.231Z,10.20
2022-08-31T05:26:42.047Z,10.07
2022-08-31T05:31:52.265Z,9.38
2022-08-31T05:36:59.799Z,10.20
2022-08-31T05:42:11.327Z,8.63
2022-08-31T05:47:16.861Z,9.75
2022-08-31T05:52:24.865Z,11.10
2022-08-31T05:57:32.108Z,12.35
2022-08-31T06:02:41.302Z,11.57
2022-08-31T06:07:49.731Z,12.77
2022-08-31T06:12:55.199Z,10.85
2022-08-31T06:18:01.445Z,10.60
2022-08-31T06:23:09.973Z,9.82
2022-08-31T06:33:28.711Z,10.73
2022-08-31T06:38:41.900Z,8.07
2022-08-31T06:44:23.733Z,9.20
2022-08-31T06:49:58.806Z,10.68
2022-08-31T06:55:04.613Z,9.57
2022-08-31T07:00:28.301Z,9.73
2022-08-31T07:05:58.038Z,8.75
2022-08-31T07:11:05.077Z,9.65
2022-08-31T07:16:13.377Z,8.38
2022-08-31T07:21:23.793Z,9.50
2022-08-31T07:26:37.390Z,9.40
2022-08-31T07:31:51.985Z,9.20
2022-08-31T07:37:17.834Z,8.90
2022-08-31T07:42:30.267Z,9.98
2022-08-31T07:47:37.094Z,8.82
2022-08-31T07:52:49.370Z,9.45
2022-08-31T07:58:15.007Z,8.98
2022-08-31T08:03:23.410Z,8.50
2022-08-31T08:09:01.578Z,8.30
2022-08-31T08:14:41.701Z,9.43
2022-08-31T08:20:11.653Z,10.95
2022-08-31T08:25:25.872Z,8.40
2022-08-31T08:30:47.254Z,8.13
2022-08-31T08:36:01.156Z,8.20
2022-08-31T08:41:17.322Z,9.02
2022-08-31T08:46:53.098Z,8.05
2022-08-31T08:52:06.939Z,8.48
2022-08-31T08:57:20.297Z,8.63
2022-08-31T09:02:51.487Z,9.00
2022-08-31T09:08:11.712Z,9.40
2022-08-31T09:13:34.575Z,9.82
2022-08-31T09:19:03.362Z,20.95
2022-08-31T09:24:15.521Z,10.07
2022-08-31T09:29:34.157Z,8.20
2022-08-31T09:34:43.852Z,8.25
2022-08-31T09:39:51.646Z,7.93
2022-08-31T09:45:00.536Z,6.60
2022-08-31T09:50:13.582Z,7.55
2022-08-31T09:55:26.913Z,8.95
2022-08-31T10:00:43.321Z,12.13
2022-08-31T10:05:50.254Z,8.35
2022-08-31T10:11:00.143Z,13.43
2022-08-31T10:16:18.494Z,14.05
2022-08-31T10:21:37.074Z,11.60
2022-08-31T10:26:47.897Z,12.25
2022-08-31T10:31:57.394Z,12.15
2022-08-31T10:37:17.605Z,10.50
2022-08-31T10:42:37.473Z,12.82
2022-08-31T10:47:50.454Z,14.02
2022-08-31T10:53:16.882Z,12.88
2022-08-31T10:58:34.994Z,12.07
2022-08-31T11:03:56.089Z,13.73
2022-08-31T11:09:26.990Z,12.65
2022-08-31T11:15:00.094Z,13.50
2022-08-31T11:20:30.077Z,19.33
2022-08-31T11:26:08.639Z,18.85
2022-08-31T11:31:25.850Z,24.58
2022-08-31T11:36:51.561Z,19.65
2022-08-31T11:41:57.263Z,18.77
2022-08-31T11:47:09.738Z,20.77
2022-08-31T11:52:30.687Z,22.73
2022-08-31T11:58:07.869Z,34.10
2022-08-31T12:03:33.356Z,27.33
2022-08-31T12:08:59.312Z,24.25
2022-08-31T12:14:27.513Z,24.92
2022-08-31T12:20:13.893Z,26.15
2022-08-31T12:25:54.551Z,27.42
2022-08-31T12:31:06.638Z,30.33
2022-08-31T12:36:18.164Z,33.90
2022-08-31T12:41:25.496Z,32.33
2022-08-31T12:46:46.784Z,32.40
2022-08-31T12:52:16.851Z,33.65
2022-08-31T12:57:42.638Z,44.15
2022-08-31T13:02:53.517Z,50.08
2022-08-31T13:08:00.968Z,46.17
2022-08-31T13:13:26.088Z,40.92
2022-08-31T13:18:32.641Z,36.28
2022-08-31T13:23:42.378Z,29.63
2022-08-31T13:29:09.568Z,20.17
2022-08-31T13:34:15.937Z,17.45
2022-08-31T13:39:40.646Z,15.27
2022-08-31T13:44:48.470Z,16.47
2022-08-31T13:50:08.713Z,14.27
2022-08-31T13:55:15.657Z,14.32
2022-08-31T14:00:35.955Z,14.55
2022-08-31T14:05:41.651Z,12.45
2022-08-31T14:10:50.991Z,13.07
2022-08-31T14:15:59.639Z,13.15
2022-08-31T14:21:20.560Z,13.48
2022-08-31T14:26:29.562Z,15.55
2022-08-31T14:31:45.380Z,15.05
2022-08-31T14:37:03.667Z,18.17
2022-08-31T14:42:18.801Z,16.85
2022-08-31T14:47:33.842Z,18.60
2022-08-31T14:52:41.468Z,15.90
2022-08-31T14:57:48.776Z,17.95
2022-08-31T15:02:56.116Z,16.25
2022-08-31T15:08:02.107Z,18.30
2022-08-31T15:13:10.175Z,17.08
2022-08-31T15:18:16.345Z,16.27
2022-08-31T15:23:22.242Z,17.55
2022-08-31T15:28:33.330Z,18.02
2022-08-31T15:33:41.422Z,17.50
2022-08-31T15:38:47.349Z,16.70
2022-08-31T15:43:53.644Z,17.27
2022-08-31T15:48:58.837Z,16.23
2022-08-31T15:54:21.761Z,15.68
2022-08-31T15:59:28.519Z,15.88
2022-08-31T16:04:39.870Z,14.63
2022-08-31T16:09:48.507Z,15.27
2022-08-31T16:14:54.003Z,14.32
2022-08-31T16:19:59.450Z,15.48
2022-08-31T16:25:08.344Z,13.20
2022-08-31T16:30:15.631Z,14.68
2022-08-31T16:35:21.006Z,16.25
2022-08-31T16:40:27.333Z,15.77
2022-08-31T16:45:32.822Z,15.57
2022-08-31T16:50:38.413Z,15.07
2022-08-31T16:55:45.867Z,14.65
2022-08-31T17:00:52.456Z,17.17
2022-08-31T17:05:58.597Z,17.45
2022-08-31T17:11:12.986Z,18.67
2022-08-31T17:16:23.795Z,18.50
2022-08-31T17:21:31.516Z,18.92
2022-08-31T17:26:36.894Z,19.55
2022-08-31T17:31:47.517Z,17.42
2022-08-31T17:36:53.793Z,19.23
2022-08-31T17:42:00.363Z,19.90
2022-08-31T17:47:06.345Z,19.52
2022-08-31T17:52:14.294Z,21.00
2022-08-31T17:57:21.379Z,21.65
2022-08-31T18:02:33.911Z,18.40
2022-08-31T18:07:39.983Z,20.70
2022-08-31T18:12:45.503Z,17.45
2022-08-31T18:17:51.333Z,21.95
2022-08-31T18:22:57.180Z,22.23
2022-08-31T18:28:04.849Z,20.75
2022-08-31T18:33:13.873Z,21.25
2022-08-31T18:38:20.931Z,21.83
2022-08-31T18:43:44.855Z,20.85
2022-08-31T18:49:11.440Z,23.42
2022-08-31T18:54:17.825Z,24.50
2022-08-31T18:59:23.302Z,23.38
2022-08-31T19:04:28.633Z,21.88
2022-08-31T19:09:34.927Z,22.90
2022-08-31T19:14:40.764Z,22.35
2022-08-31T19:19:48.260Z,23.35
2022-08-31T19:24:53.875Z,24.83
2022-08-31T19:29:59.469Z,23.58
2022-08-31T19:35:05.665Z,23.50
2022-08-31T19:40:18.562Z,23.63
2022-08-31T19:45:24.475Z,23.30
2022-08-31T19:50:30.903Z,23.98
2022-08-31T19:55:36.561Z,22.75
2022-08-31T20:00:41.854Z,23.35
2022-08-31T20:05:47.883Z,23.60
2022-08-31T20:10:53.579Z,23.98
2022-08-31T20:15:59.202Z,23.85
2022-08-31T20:21:06.053Z,22.85
2022-08-31T20:26:13.301Z,23.10
2022-08-31T20:31:19.635Z,21.88
2022-08-31T20:36:31.587Z,21.33
2022-08-31T20:41:42.880Z,20.92
2022-08-31T20:47:10.045Z,20.15
2022-08-31T20:52:18.167Z,20.27
2022-08-31T20:57:24.359Z,21.63
2022-08-31T21:02:30.850Z,20.65
2022-08-31T21:07:37.643Z,18.38
2022-08-31T21:12:43.208Z,18.50
2022-08-31T21:22:55.687Z,19.00
2022-08-31T21:28:01.587Z,19.98
2022-08-31T21:33:06.968Z,20.92
2022-08-31T21:38:14.418Z,20.85
2022-08-31T21:43:20.305Z,20.17
2022-08-31T21:48:26.249Z,23.52
2022-08-31T21:53:32.465Z,22.02
2022-08-31T21:58:38.298Z,21.27
2022-08-31T22:03:44.297Z,22.17
2022-08-31T22:08:52.067Z,19.13
2022-08-31T22:14:00.132Z,18.27
2022-08-31T22:19:07.327Z,23.95
2022-08-31T22:24:27.723Z,25.95
2022-08-31T22:29:36.926Z,21.17
2022-08-31T22:34:44.831Z,27.23
2022-08-31T22:39:52.187Z,25.15
2022-08-31T22:44:57.798Z,27.48
2022-08-31T22:50:02.953Z,30.40
2022-08-31T22:55:10.664Z,38.33
2022-08-31T23:00:16.202Z,33.15
2022-08-31T23:05:22.389Z,30.45
2022-08-31T23:10:28.517Z,40.47
2022-08-31T23:15:35.125Z,32.75
2022-08-31T23:20:43.162Z,30.55
2022-08-31T23:25:48.907Z,35.72
2022-08-31T23:35:59.967Z,33.07
2022-08-31T23:41:05.694Z,29.55
2022-08-31T23:46:16.954Z,39.13
2022-08-31T23:51:23.997Z,40.15
2022-08-31T23:56:34.152Z,45.10
